Pless — NSWP — position and weather

sailwx.info

Track history (hours):
 
Tides and Currents Weather Stations Pressure Air Temp Water Temp Dewpoint Dewpoint Depression Visibility Wind Speed Wind Dir Waves Ship Positions

Pless

Last reported at 2017-Dec-03 18:03 UTC. Time now 2017-Dec-15 23:21 UTC.
Position N 36°57' W 076°25'.
Warning: this ship's position is 12 days out of date.

Length 250 m; draft 9.1 m.

Type: Military. MMSI: 366204000.

Date/timePositionNaut miles runAvg speedWind from/ knotsBaromVisibWave heightAir tempDewpointWater temp
2017-Dec-03 18:03N 36°57' W 076°25'0 3.8
2017-Dec-03 18:00N 36°57' W 076°25'4 7.0
2017-Dec-03 17:30N 36°58' W 076°21'510.8
2017-Dec-03 17:00N 37°01' W 076°15'815.3
2017-Dec-03 16:29N 36°58' W 076°05'510.9
2017-Dec-03 16:01N 36°57' W 075°59'4 8.8
2017-Dec-03 15:30N 36°55' W 075°54'510.2
2017-Dec-03 15:00N 36°51' W 075°49'510.2
2017-Dec-03 14:31N 36°49' W 075°43'42013.4
2017-Dec-02 07:12N 42°16' W 070°02'316.3
2017-Dec-02 07:01N 42°17' W 070°07'816.8
2017-Dec-02 06:31N 42°18' W 070°18'816.6
2017-Dec-02 06:01N 42°19' W 070°29'816.6
2017-Dec-02 05:31N 42°20' W 070°40'714.6
2017-Dec-02 05:01N 42°22' W 070°49'3 5.4
2017-Dec-02 04:30N 42°24' W 070°53'2 4.1
2017-Dec-02 04:01N 42°25' W 070°51'2 2.9
2017-Dec-02 03:29N 42°24' W 070°49'3 6.1
2017-Dec-02 03:01N 42°25' W 070°45'1 2.0
2017-Dec-02 02:30N 42°25' W 070°46'1 1.7
2017-Dec-02 02:01N 42°25' W 070°47'2 4.0
2017-Dec-02 01:30N 42°26' W 070°46'714.1
2017-Dec-02 01:00N 42°30' W 070°38'1019.7
2017-Dec-02 00:30N 42°30' W 070°24'1121.2
2017-Dec-02 00:00N 42°31' W 070°10'1121.5
2017-Dec-01 23:30N 42°32' W 069°55'3 1.5
2017-Dec-01 21:31N 42°30' W 069°52'020.9
2017-Dec-01 21:30N 42°30' W 069°53'1121.2
2017-Dec-01 21:00N 42°30' W 070°07'1121.1
2017-Dec-01 20:30N 42°30' W 070°22'1019.5
2017-Dec-01 20:00N 42°30' W 070°35'816.5
2017-Dec-01 19:31N 42°26' W 070°44'611.2
2017-Dec-01 19:00N 42°24' W 070°52'0 1.0
2017-Dec-01 18:31N 42°24' W 070°51'1 2.7
2017-Dec-01 18:01N 42°25' W 070°51'4 8.9
2017-Dec-01 17:30N 42°22' W 070°55'4 7.5
2017-Dec-01 17:00N 42°20' W 071°00'1 2.2
2017-Dec-01 16:31N 42°21' W 071°01'0 0.3
2017-Dec-01 15:58N 42°21' W 071°02'0 0.0
2017-Dec-01 15:29N 42°21' W 071°02'0 0.0
2017-Dec-01 12:36N 42°21' W 071°02'0 0.0
2017-Dec-01 03:17N 42°21' W 071°02'0 0.0
2017-Dec-01 02:59N 42°21' W 071°02'0 0.0
2017-Dec-01 02:29N 42°21' W 071°02'0 0.0
2017-Dec-01 01:23N 42°21' W 071°02'0 0.0
2017-Dec-01 00:53N 42°21' W 071°02'0 0.0
2017-Dec-01 00:29N 42°21' W 071°02'0 0.0
2017-Nov-30 23:59N 42°21' W 071°02'0 0.0
2017-Nov-30 10:59N 42°21' W 071°02'0 0.0
2017-Nov-30 10:29N 42°21' W 071°02'0 0.0
2017-Nov-30 09:53N 42°21' W 071°02'0 0.0
2017-Nov-30 09:29N 42°21' W 071°02'0 0.0
2017-Nov-30 08:59N 42°21' W 071°02'0 0.0
2017-Nov-29 07:23N 42°21' W 071°02'0 0.0
2017-Nov-28 23:43N 42°21' W 071°02'0 0.1
2017-Nov-28 23:28N 42°21' W 071°02'0 0.6
2017-Nov-28 23:00N 42°21' W 071°01'0 0.2
2017-Nov-28 22:29N 42°21' W 071°01'0 0.5
2017-Nov-28 22:00N 42°21' W 071°02'0 0.1
2017-Nov-28 21:31N 42°21' W 071°02'0 0.1
2017-Nov-28 20:59N 42°21' W 071°02'0 0.0
2017-Nov-28 20:29N 42°21' W 071°02'0 0.0
2017-Nov-28 19:59N 42°21' W 071°02'0 0.0
2017-Nov-28 19:29N 42°21' W 071°02'0 0.0
2017-Nov-28 18:59N 42°21' W 071°02'0 0.0
2017-Nov-28 18:29N 42°21' W 071°02'0 0.0
2017-Nov-28 17:59N 42°21' W 071°02'0 0.0
2017-Nov-28 17:29N 42°21' W 071°02'0 0.0
2017-Nov-28 16:59N 42°21' W 071°02'0 0.0
2017-Nov-28 16:29N 42°21' W 071°02'0 0.0
2017-Nov-28 15:53N 42°21' W 071°02'0 0.0
2017-Nov-28 14:59N 42°21' W 071°02'0 0.0
2017-Nov-28 14:26N 42°21' W 071°02'0 0.0
2017-Nov-28 13:59N 42°21' W 071°02'0 0.0
2017-Nov-28 13:29N 42°21' W 071°02'0 0.0
2017-Nov-28 12:59N 42°21' W 071°02'0 0.0
2017-Nov-28 12:29N 42°21' W 071°02'0 0.0
2017-Nov-28 11:59N 42°21' W 071°02'0 0.0
2017-Nov-28 11:29N 42°21' W 071°02'0 0.0
2017-Nov-28 10:59N 42°21' W 071°02'0 0.0
2017-Nov-28 10:29N 42°21' W 071°02'0 0.0
2017-Nov-28 09:59N 42°21' W 071°02'0 0.0
2017-Nov-28 09:29N 42°21' W 071°02'0 0.0
2017-Nov-28 08:59N 42°21' W 071°02'0 0.0
2017-Nov-28 08:29N 42°21' W 071°02'0 0.0
2017-Nov-28 07:59N 42°21' W 071°02'0 0.0
2017-Nov-28 07:29N 42°21' W 071°02'0 0.0
2017-Nov-28 06:59N 42°21' W 071°02'0 0.0
2017-Nov-28 06:29N 42°21' W 071°02'0 0.0
2017-Nov-28 05:59N 42°21' W 071°02'0 0.0
2017-Nov-28 05:29N 42°21' W 071°02'0 0.0
2017-Nov-28 04:29N 42°21' W 071°02'0 0.0
2017-Nov-28 03:59N 42°21' W 071°02'0 0.0
2017-Nov-28 03:29N 42°21' W 071°02'0 0.0
2017-Nov-28 02:59N 42°21' W 071°02'0 0.0
2017-Nov-28 02:29N 42°21' W 071°02'0 0.0
2017-Nov-28 01:59N 42°21' W 071°02'0 0.0
2017-Nov-28 01:29N 42°21' W 071°02'0 0.0
2017-Nov-28 00:59N 42°21' W 071°02'0 0.0
2017-Nov-28 00:29N 42°21' W 071°02'0 0.0
2017-Nov-27 23:59N 42°21' W 071°02'0 0.0
2017-Nov-27 23:26N 42°21' W 071°02'0 0.0
2017-Nov-27 22:59N 42°21' W 071°02'0 0.0
2017-Nov-27 22:29N 42°21' W 071°02'0 0.0
2017-Nov-27 21:59N 42°21' W 071°02'0 0.0
2017-Nov-27 21:29N 42°21' W 071°02'0 0.0
2017-Nov-27 20:59N 42°21' W 071°02'0 0.0
2017-Nov-27 20:26N 42°21' W 071°02'0 0.0
2017-Nov-27 19:59N 42°21' W 071°02'0 0.0
2017-Nov-27 19:29N 42°21' W 071°02'0 0.0
2017-Nov-27 18:59N 42°21' W 071°02'0 0.0
2017-Nov-27 18:29N 42°21' W 071°02'0 0.0
2017-Nov-27 17:59N 42°21' W 071°02'0 0.0
2017-Nov-27 17:29N 42°21' W 071°02'0 0.0
2017-Nov-27 16:59N 42°21' W 071°02'0 0.0
2017-Nov-27 16:29N 42°21' W 071°02'0 0.0
2017-Nov-27 15:56N 42°21' W 071°02'0 0.0
2017-Nov-27 15:29N 42°21' W 071°02'0 0.0
2017-Nov-27 14:59N 42°21' W 071°02'0 0.0
2017-Nov-27 14:29N 42°21' W 071°02'0 0.0
2017-Nov-27 13:59N 42°21' W 071°02'0 0.0
2017-Nov-27 13:29N 42°21' W 071°02'0 0.0
2017-Nov-27 12:59N 42°21' W 071°02'0 0.0
2017-Nov-27 12:29N 42°21' W 071°02'0 0.0
2017-Nov-27 11:59N 42°21' W 071°02'0 0.0
2017-Nov-27 11:29N 42°21' W 071°02'0 0.0
2017-Nov-27 10:59N 42°21' W 071°02'0 0.0
2017-Nov-27 10:29N 42°21' W 071°02'0 0.0
2017-Nov-27 09:59N 42°21' W 071°02'0 0.0
2017-Nov-27 09:29N 42°21' W 071°02'0 0.0
2017-Nov-27 08:59N 42°21' W 071°02'0 0.0
2017-Nov-27 08:29N 42°21' W 071°02'0 0.0
2017-Nov-27 07:59N 42°21' W 071°02'0 0.0
2017-Nov-27 07:26N 42°21' W 071°02'0 0.0
2017-Nov-27 06:59N 42°21' W 071°02'0 0.0
2017-Nov-27 06:29N 42°21' W 071°02'0 0.0
2017-Nov-27 05:59N 42°21' W 071°02'0 0.0
2017-Nov-27 05:29N 42°21' W 071°02'0 0.0
2017-Nov-27 04:59N 42°21' W 071°02'0 0.0
2017-Nov-27 04:29N 42°21' W 071°02'0 0.0
2017-Nov-27 03:59N 42°21' W 071°02'0 0.0
2017-Nov-27 03:29N 42°21' W 071°02'0 0.0
2017-Nov-27 02:59N 42°21' W 071°02'0 0.0
2017-Nov-27 02:29N 42°21' W 071°02'0 0.0
2017-Nov-27 01:59N 42°21' W 071°02'0 0.0
2017-Nov-27 01:29N 42°21' W 071°02'0 0.0
2017-Nov-27 00:59N 42°21' W 071°02'0 0.0
2017-Nov-27 00:29N 42°21' W 071°02'0 0.0
2017-Nov-26 23:59N 42°21' W 071°02'0 0.0
2017-Nov-26 23:29N 42°21' W 071°02'0 0.0
2017-Nov-26 22:59N 42°21' W 071°02'0 0.0
2017-Nov-26 22:29N 42°21' W 071°02'0 0.0
2017-Nov-26 21:59N 42°21' W 071°02'0 0.0
2017-Nov-26 21:29N 42°21' W 071°02'0 0.0
2017-Nov-26 20:59N 42°21' W 071°02'0 0.0
2017-Nov-26 20:29N 42°21' W 071°02'0 0.0
2017-Nov-26 19:59N 42°21' W 071°02'0 0.0
2017-Nov-26 19:29N 42°21' W 071°02'0 0.0
2017-Nov-26 18:59N 42°21' W 071°02'0 0.0
2017-Nov-26 18:29N 42°21' W 071°02'0 0.0
2017-Nov-26 17:59N 42°21' W 071°02'0 0.0
2017-Nov-26 17:29N 42°21' W 071°02'0 0.0
2017-Nov-26 16:59N 42°21' W 071°02'0 0.0
2017-Nov-26 16:29N 42°21' W 071°02'0 0.0
2017-Nov-26 15:59N 42°21' W 071°02'0 0.0
2017-Nov-26 15:29N 42°21' W 071°02'0 0.0
2017-Nov-26 14:59N 42°21' W 071°02'0 0.0
2017-Nov-26 14:29N 42°21' W 071°02'0 0.0
2017-Nov-26 13:59N 42°21' W 071°02'0 0.0
2017-Nov-26 13:29N 42°21' W 071°02'0 0.0
2017-Nov-26 12:59N 42°21' W 071°02'0 0.0
2017-Nov-26 12:29N 42°21' W 071°02'0 0.0
2017-Nov-26 11:59N 42°21' W 071°02'0 0.0
2017-Nov-26 11:29N 42°21' W 071°02'0 0.0
2017-Nov-26 10:59N 42°21' W 071°02'0 0.0
2017-Nov-26 10:26N 42°21' W 071°02'0 0.0
2017-Nov-26 09:59N 42°21' W 071°02'0 0.0
2017-Nov-26 09:29N 42°21' W 071°02'0 0.0
2017-Nov-26 08:59N 42°21' W 071°02'0 0.0
2017-Nov-26 08:29N 42°21' W 071°02'0 0.0
2017-Nov-26 07:59N 42°21' W 071°02'0 0.0
2017-Nov-26 07:29N 42°21' W 071°02'0 0.0
2017-Nov-26 06:59N 42°21' W 071°02'0 0.0
2017-Nov-26 06:29N 42°21' W 071°02'0 0.0
2017-Nov-26 05:59N 42°21' W 071°02'0 0.0
2017-Nov-26 05:29N 42°21' W 071°02'0 0.0
2017-Nov-26 04:59N 42°21' W 071°02'0 0.0
2017-Nov-26 04:29N 42°21' W 071°02'0 0.0
2017-Nov-26 03:59N 42°21' W 071°02'0 0.0
2017-Nov-26 03:29N 42°21' W 071°02'0 0.0
2017-Nov-26 02:59N 42°21' W 071°02'0 0.0
2017-Nov-26 02:29N 42°21' W 071°02'0 0.0
2017-Nov-26 01:59N 42°21' W 071°02'0 0.0
2017-Nov-26 01:29N 42°21' W 071°02'0 0.0
2017-Nov-26 00:59N 42°21' W 071°02'0 0.0
2017-Nov-26 00:29N 42°21' W 071°02'0 0.0
2017-Nov-25 23:59N 42°21' W 071°02'0 0.0
2017-Nov-25 23:29N 42°21' W 071°02'0 0.0
2017-Nov-25 22:59N 42°21' W 071°02'0 0.0
2017-Nov-25 22:29N 42°21' W 071°02'0 0.0
2017-Nov-25 21:59N 42°21' W 071°02'0 0.0
2017-Nov-25 21:29N 42°21' W 071°02'0 0.0
2017-Nov-25 20:59N 42°21' W 071°02'0 0.0
2017-Nov-25 20:29N 42°21' W 071°02'0 0.0
2017-Nov-25 19:53N 42°21' W 071°02'0 0.0
2017-Nov-25 19:29N 42°21' W 071°02'0 0.0
2017-Nov-25 18:59N 42°21' W 071°02'0 0.0
2017-Nov-25 18:29N 42°21' W 071°02'0 0.0
2017-Nov-25 17:59N 42°21' W 071°02'0 0.0
2017-Nov-25 17:29N 42°21' W 071°02'0 0.0
2017-Nov-25 16:59N 42°21' W 071°02'0 0.0
2017-Nov-25 16:29N 42°21' W 071°02'0 0.0
2017-Nov-25 15:59N 42°21' W 071°02'0 0.0
2017-Nov-25 15:29N 42°21' W 071°02'0 0.0
2017-Nov-25 14:59N 42°21' W 071°02'0 0.0
2017-Nov-25 14:29N 42°21' W 071°02'0 0.0
2017-Nov-25 13:59N 42°21' W 071°02'0 0.0
2017-Nov-25 13:29N 42°21' W 071°02'0 0.0
2017-Nov-25 12:59N 42°21' W 071°02'0 0.0
2017-Nov-25 12:29N 42°21' W 071°02'0 0.0
2017-Nov-25 11:59N 42°21' W 071°02'0 0.0
2017-Nov-25 11:29N 42°21' W 071°02'0 0.0
2017-Nov-25 10:59N 42°21' W 071°02'0 0.0
2017-Nov-25 10:29N 42°21' W 071°02'0 0.0
2017-Nov-25 09:59N 42°21' W 071°02'0 0.0
2017-Nov-25 09:29N 42°21' W 071°02'0 0.0
2017-Nov-25 08:59N 42°21' W 071°02'0 0.0
2017-Nov-25 08:29N 42°21' W 071°02'0 0.0
2017-Nov-25 07:59N 42°21' W 071°02'0 0.0
2017-Nov-25 07:29N 42°21' W 071°02'0 0.0
2017-Nov-25 06:59N 42°21' W 071°02'0 0.0
2017-Nov-25 06:29N 42°21' W 071°02'0 0.0
2017-Nov-25 05:59N 42°21' W 071°02'0 0.0
2017-Nov-25 05:29N 42°21' W 071°02'0 0.0
2017-Nov-25 04:59N 42°21' W 071°02'0 0.0
2017-Nov-25 04:29N 42°21' W 071°02'0 0.0
2017-Nov-25 03:59N 42°21' W 071°02'0 0.0
2017-Nov-25 03:29N 42°21' W 071°02'0 0.0
2017-Nov-25 02:59N 42°21' W 071°02'0 0.0
2017-Nov-25 02:29N 42°21' W 071°02'0 0.0
2017-Nov-25 01:59N 42°21' W 071°02'0 0.0
2017-Nov-25 01:29N 42°21' W 071°02'0 0.0
2017-Nov-25 00:59N 42°21' W 071°02'0 0.0
2017-Nov-25 00:29N 42°21' W 071°02'0 0.0
2017-Nov-24 23:59N 42°21' W 071°02'0 0.0
2017-Nov-24 23:29N 42°21' W 071°02'0 0.0
2017-Nov-24 22:59N 42°21' W 071°02'0 0.0
2017-Nov-24 22:29N 42°21' W 071°02'0 0.0
2017-Nov-24 21:59N 42°21' W 071°02'0 0.0
2017-Nov-24 21:29N 42°21' W 071°02'0 0.0
2017-Nov-24 20:59N 42°21' W 071°02'0 0.0
2017-Nov-24 20:29N 42°21' W 071°02'0 0.0
2017-Nov-24 19:59N 42°21' W 071°02'0 0.0
2017-Nov-24 19:29N 42°21' W 071°02'0 0.0
2017-Nov-24 18:59N 42°21' W 071°02'0 0.0
2017-Nov-24 18:29N 42°21' W 071°02'0 0.0
2017-Nov-24 17:59N 42°21' W 071°02'0 0.0
2017-Nov-24 17:29N 42°21' W 071°02'0 0.0
2017-Nov-24 16:59N 42°21' W 071°02'0 0.0
2017-Nov-24 16:29N 42°21' W 071°02'0 0.0
2017-Nov-24 15:59N 42°21' W 071°02'0 0.0
2017-Nov-24 15:26N 42°21' W 071°02'0 0.0
2017-Nov-24 14:59N 42°21' W 071°02'0 0.0
2017-Nov-24 14:29N 42°21' W 071°02'0 0.0
2017-Nov-24 13:59N 42°21' W 071°02'0 0.0
2017-Nov-24 13:29N 42°21' W 071°02'0 0.0
2017-Nov-24 12:59N 42°21' W 071°02'0 0.0
2017-Nov-24 12:29N 42°21' W 071°02'0 0.0
2017-Nov-24 11:59N 42°21' W 071°02'0 0.0
2017-Nov-24 11:29N 42°21' W 071°02'0 0.0
2017-Nov-24 10:59N 42°21' W 071°02'0 0.0
2017-Nov-24 10:29N 42°21' W 071°02'0 0.0
2017-Nov-24 09:59N 42°21' W 071°02'0 0.0
2017-Nov-24 09:29N 42°21' W 071°02'0 0.0
2017-Nov-24 08:59N 42°21' W 071°02'0 0.0
2017-Nov-24 08:29N 42°21' W 071°02'0 0.0
2017-Nov-24 07:59N 42°21' W 071°02'0 0.0
2017-Nov-24 07:29N 42°21' W 071°02'0 0.0
2017-Nov-24 06:59N 42°21' W 071°02'0 0.0
2017-Nov-24 06:29N 42°21' W 071°02'0 0.0
2017-Nov-24 05:59N 42°21' W 071°02'0 0.0
2017-Nov-24 05:29N 42°21' W 071°02'0 0.0
2017-Nov-24 04:59N 42°21' W 071°02'0 0.0
2017-Nov-24 04:29N 42°21' W 071°02'0 0.0
2017-Nov-24 03:59N 42°21' W 071°02'0 0.0
2017-Nov-24 03:29N 42°21' W 071°02'0 0.0
2017-Nov-24 02:59N 42°21' W 071°02'0 0.0
2017-Nov-24 02:29N 42°21' W 071°02'0 0.0
2017-Nov-24 01:59N 42°21' W 071°02'0 0.0
2017-Nov-24 01:26N 42°21' W 071°02'0 0.0
2017-Nov-24 00:59N 42°21' W 071°02'0 0.0
2017-Nov-24 00:29N 42°21' W 071°02'0 0.0
2017-Nov-23 23:59N 42°21' W 071°02'0 0.0
2017-Nov-23 23:29N 42°21' W 071°02'0 0.0
2017-Nov-23 22:59N 42°21' W 071°02'0 0.0
2017-Nov-23 22:29N 42°21' W 071°02'0 0.0
2017-Nov-23 21:59N 42°21' W 071°02'0 0.0
2017-Nov-23 21:23N 42°21' W 071°02'0 0.0
2017-Nov-23 20:56N 42°21' W 071°02'0 0.0
2017-Nov-23 20:29N 42°21' W 071°02'0 0.0
2017-Nov-23 19:59N 42°21' W 071°02'0 0.0
2017-Nov-23 19:29N 42°21' W 071°02'0 0.0
2017-Nov-23 18:59N 42°21' W 071°02'0 0.0
2017-Nov-23 18:29N 42°21' W 071°02'  
Track history (hours):
 
Tides and Currents Weather Stations Pressure Air Temp Water Temp Dewpoint Dewpoint Depression Visibility Wind Speed Wind Dir Waves Ship Positions

Pless

Last reported at 2017-Dec-03 18:03 UTC. Time now 2017-Dec-15 23:21 UTC.
Position N 36°57' W 076°25'.
Warning: this ship's position is 12 days out of date.

Length 250 m; draft 9.1 m.

Type: Military. MMSI: 366204000.

Date/timePositionNaut miles runAvg speedWind from/ knotsBaromVisibWave heightAir tempDewpointWater temp
2017-Dec-03 18:03N 36°57' W 076°25'0 3.8
2017-Dec-03 18:00N 36°57' W 076°25'4 7.0
2017-Dec-03 17:30N 36°58' W 076°21'510.8
2017-Dec-03 17:00N 37°01' W 076°15'815.3
2017-Dec-03 16:29N 36°58' W 076°05'510.9
2017-Dec-03 16:01N 36°57' W 075°59'4 8.8
2017-Dec-03 15:30N 36°55' W 075°54'510.2
2017-Dec-03 15:00N 36°51' W 075°49'510.2
2017-Dec-03 14:31N 36°49' W 075°43'42013.4
2017-Dec-02 07:12N 42°16' W 070°02'316.3
2017-Dec-02 07:01N 42°17' W 070°07'816.8
2017-Dec-02 06:31N 42°18' W 070°18'816.6
2017-Dec-02 06:01N 42°19' W 070°29'816.6
2017-Dec-02 05:31N 42°20' W 070°40'714.6
2017-Dec-02 05:01N 42°22' W 070°49'3 5.4
2017-Dec-02 04:30N 42°24' W 070°53'2 4.1
2017-Dec-02 04:01N 42°25' W 070°51'2 2.9
2017-Dec-02 03:29N 42°24' W 070°49'3 6.1
2017-Dec-02 03:01N 42°25' W 070°45'1 2.0
2017-Dec-02 02:30N 42°25' W 070°46'1 1.7
2017-Dec-02 02:01N 42°25' W 070°47'2 4.0
2017-Dec-02 01:30N 42°26' W 070°46'714.1
2017-Dec-02 01:00N 42°30' W 070°38'1019.7
2017-Dec-02 00:30N 42°30' W 070°24'1121.2
2017-Dec-02 00:00N 42°31' W 070°10'1121.5
2017-Dec-01 23:30N 42°32' W 069°55'3 1.5
2017-Dec-01 21:31N 42°30' W 069°52'020.9
2017-Dec-01 21:30N 42°30' W 069°53'1121.2
2017-Dec-01 21:00N 42°30' W 070°07'1121.1
2017-Dec-01 20:30N 42°30' W 070°22'1019.5
2017-Dec-01 20:00N 42°30' W 070°35'816.5
2017-Dec-01 19:31N 42°26' W 070°44'611.2
2017-Dec-01 19:00N 42°24' W 070°52'0 1.0
2017-Dec-01 18:31N 42°24' W 070°51'1 2.7
2017-Dec-01 18:01N 42°25' W 070°51'4 8.9
2017-Dec-01 17:30N 42°22' W 070°55'4 7.5
2017-Dec-01 17:00N 42°20' W 071°00'1 2.2
2017-Dec-01 16:31N 42°21' W 071°01'0 0.3
2017-Dec-01 15:58N 42°21' W 071°02'0 0.0
2017-Dec-01 15:29N 42°21' W 071°02'0 0.0
2017-Dec-01 12:36N 42°21' W 071°02'0 0.0
2017-Dec-01 03:17N 42°21' W 071°02'0 0.0
2017-Dec-01 02:59N 42°21' W 071°02'0 0.0
2017-Dec-01 02:29N 42°21' W 071°02'0 0.0
2017-Dec-01 01:23N 42°21' W 071°02'0 0.0
2017-Dec-01 00:53N 42°21' W 071°02'0 0.0
2017-Dec-01 00:29N 42°21' W 071°02'0 0.0
2017-Nov-30 23:59N 42°21' W 071°02'0 0.0
2017-Nov-30 10:59N 42°21' W 071°02'0 0.0
2017-Nov-30 10:29N 42°21' W 071°02'0 0.0
2017-Nov-30 09:53N 42°21' W 071°02'0 0.0
2017-Nov-30 09:29N 42°21' W 071°02'0 0.0
2017-Nov-30 08:59N 42°21' W 071°02'0 0.0
2017-Nov-29 07:23N 42°21' W 071°02'0 0.0
2017-Nov-28 23:43N 42°21' W 071°02'0 0.1
2017-Nov-28 23:28N 42°21' W 071°02'0 0.6
2017-Nov-28 23:00N 42°21' W 071°01'0 0.2
2017-Nov-28 22:29N 42°21' W 071°01'0 0.5
2017-Nov-28 22:00N 42°21' W 071°02'0 0.1
2017-Nov-28 21:31N 42°21' W 071°02'0 0.1
2017-Nov-28 20:59N 42°21' W 071°02'0 0.0
2017-Nov-28 20:29N 42°21' W 071°02'0 0.0
2017-Nov-28 19:59N 42°21' W 071°02'0 0.0
2017-Nov-28 19:29N 42°21' W 071°02'0 0.0
2017-Nov-28 18:59N 42°21' W 071°02'0 0.0
2017-Nov-28 18:29N 42°21' W 071°02'0 0.0
2017-Nov-28 17:59N 42°21' W 071°02'0 0.0
2017-Nov-28 17:29N 42°21' W 071°02'0 0.0
2017-Nov-28 16:59N 42°21' W 071°02'0 0.0
2017-Nov-28 16:29N 42°21' W 071°02'0 0.0
2017-Nov-28 15:53N 42°21' W 071°02'0 0.0
2017-Nov-28 14:59N 42°21' W 071°02'0 0.0
2017-Nov-28 14:26N 42°21' W 071°02'0 0.0
2017-Nov-28 13:59N 42°21' W 071°02'0 0.0
2017-Nov-28 13:29N 42°21' W 071°02'0 0.0
2017-Nov-28 12:59N 42°21' W 071°02'0 0.0
2017-Nov-28 12:29N 42°21' W 071°02'0 0.0
2017-Nov-28 11:59N 42°21' W 071°02'0 0.0
2017-Nov-28 11:29N 42°21' W 071°02'0 0.0
2017-Nov-28 10:59N 42°21' W 071°02'0 0.0
2017-Nov-28 10:29N 42°21' W 071°02'0 0.0
2017-Nov-28 09:59N 42°21' W 071°02'0 0.0
2017-Nov-28 09:29N 42°21' W 071°02'0 0.0
2017-Nov-28 08:59N 42°21' W 071°02'0 0.0
2017-Nov-28 08:29N 42°21' W 071°02'0 0.0
2017-Nov-28 07:59N 42°21' W 071°02'0 0.0
2017-Nov-28 07:29N 42°21' W 071°02'0 0.0
2017-Nov-28 06:59N 42°21' W 071°02'0 0.0
2017-Nov-28 06:29N 42°21' W 071°02'0 0.0
2017-Nov-28 05:59N 42°21' W 071°02'0 0.0
2017-Nov-28 05:29N 42°21' W 071°02'0 0.0
2017-Nov-28 04:29N 42°21' W 071°02'0 0.0
2017-Nov-28 03:59N 42°21' W 071°02'0 0.0
2017-Nov-28 03:29N 42°21' W 071°02'0 0.0
2017-Nov-28 02:59N 42°21' W 071°02'0 0.0
2017-Nov-28 02:29N 42°21' W 071°02'0 0.0
2017-Nov-28 01:59N 42°21' W 071°02'0 0.0
2017-Nov-28 01:29N 42°21' W 071°02'0 0.0
2017-Nov-28 00:59N 42°21' W 071°02'0 0.0
2017-Nov-28 00:29N 42°21' W 071°02'0 0.0
2017-Nov-27 23:59N 42°21' W 071°02'0 0.0
2017-Nov-27 23:26N 42°21' W 071°02'0 0.0
2017-Nov-27 22:59N 42°21' W 071°02'0 0.0
2017-Nov-27 22:29N 42°21' W 071°02'0 0.0
2017-Nov-27 21:59N 42°21' W 071°02'0 0.0
2017-Nov-27 21:29N 42°21' W 071°02'0 0.0
2017-Nov-27 20:59N 42°21' W 071°02'0 0.0
2017-Nov-27 20:26N 42°21' W 071°02'0 0.0
2017-Nov-27 19:59N 42°21' W 071°02'0 0.0
2017-Nov-27 19:29N 42°21' W 071°02'0 0.0
2017-Nov-27 18:59N 42°21' W 071°02'0 0.0
2017-Nov-27 18:29N 42°21' W 071°02'0 0.0
2017-Nov-27 17:59N 42°21' W 071°02'0 0.0
2017-Nov-27 17:29N 42°21' W 071°02'0 0.0
2017-Nov-27 16:59N 42°21' W 071°02'0 0.0
2017-Nov-27 16:29N 42°21' W 071°02'0 0.0
2017-Nov-27 15:56N 42°21' W 071°02'0 0.0
2017-Nov-27 15:29N 42°21' W 071°02'0 0.0
2017-Nov-27 14:59N 42°21' W 071°02'0 0.0
2017-Nov-27 14:29N 42°21' W 071°02'0 0.0
2017-Nov-27 13:59N 42°21' W 071°02'0 0.0
2017-Nov-27 13:29N 42°21' W 071°02'0 0.0
2017-Nov-27 12:59N 42°21' W 071°02'0 0.0
2017-Nov-27 12:29N 42°21' W 071°02'0 0.0
2017-Nov-27 11:59N 42°21' W 071°02'0 0.0
2017-Nov-27 11:29N 42°21' W 071°02'0 0.0
2017-Nov-27 10:59N 42°21' W 071°02'0 0.0
2017-Nov-27 10:29N 42°21' W 071°02'0 0.0
2017-Nov-27 09:59N 42°21' W 071°02'0 0.0
2017-Nov-27 09:29N 42°21' W 071°02'0 0.0
2017-Nov-27 08:59N 42°21' W 071°02'0 0.0
2017-Nov-27 08:29N 42°21' W 071°02'0 0.0
2017-Nov-27 07:59N 42°21' W 071°02'0 0.0
2017-Nov-27 07:26N 42°21' W 071°02'0 0.0
2017-Nov-27 06:59N 42°21' W 071°02'0 0.0
2017-Nov-27 06:29N 42°21' W 071°02'0 0.0
2017-Nov-27 05:59N 42°21' W 071°02'0 0.0
2017-Nov-27 05:29N 42°21' W 071°02'0 0.0
2017-Nov-27 04:59N 42°21' W 071°02'0 0.0
2017-Nov-27 04:29N 42°21' W 071°02'0 0.0
2017-Nov-27 03:59N 42°21' W 071°02'0 0.0
2017-Nov-27 03:29N 42°21' W 071°02'0 0.0
2017-Nov-27 02:59N 42°21' W 071°02'0 0.0
2017-Nov-27 02:29N 42°21' W 071°02'0 0.0
2017-Nov-27 01:59N 42°21' W 071°02'0 0.0
2017-Nov-27 01:29N 42°21' W 071°02'0 0.0
2017-Nov-27 00:59N 42°21' W 071°02'0 0.0
2017-Nov-27 00:29N 42°21' W 071°02'0 0.0
2017-Nov-26 23:59N 42°21' W 071°02'0 0.0
2017-Nov-26 23:29N 42°21' W 071°02'0 0.0
2017-Nov-26 22:59N 42°21' W 071°02'0 0.0
2017-Nov-26 22:29N 42°21' W 071°02'0 0.0
2017-Nov-26 21:59N 42°21' W 071°02'0 0.0
2017-Nov-26 21:29N 42°21' W 071°02'0 0.0
2017-Nov-26 20:59N 42°21' W 071°02'0 0.0
2017-Nov-26 20:29N 42°21' W 071°02'0 0.0
2017-Nov-26 19:59N 42°21' W 071°02'0 0.0
2017-Nov-26 19:29N 42°21' W 071°02'0 0.0
2017-Nov-26 18:59N 42°21' W 071°02'0 0.0
2017-Nov-26 18:29N 42°21' W 071°02'0 0.0
2017-Nov-26 17:59N 42°21' W 071°02'0 0.0
2017-Nov-26 17:29N 42°21' W 071°02'0 0.0
2017-Nov-26 16:59N 42°21' W 071°02'0 0.0
2017-Nov-26 16:29N 42°21' W 071°02'0 0.0
2017-Nov-26 15:59N 42°21' W 071°02'0 0.0
2017-Nov-26 15:29N 42°21' W 071°02'0 0.0
2017-Nov-26 14:59N 42°21' W 071°02'0 0.0
2017-Nov-26 14:29N 42°21' W 071°02'0 0.0
2017-Nov-26 13:59N 42°21' W 071°02'0 0.0
2017-Nov-26 13:29N 42°21' W 071°02'0 0.0
2017-Nov-26 12:59N 42°21' W 071°02'0 0.0
2017-Nov-26 12:29N 42°21' W 071°02'0 0.0
2017-Nov-26 11:59N 42°21' W 071°02'0 0.0
2017-Nov-26 11:29N 42°21' W 071°02'0 0.0
2017-Nov-26 10:59N 42°21' W 071°02'0 0.0
2017-Nov-26 10:26N 42°21' W 071°02'0 0.0
2017-Nov-26 09:59N 42°21' W 071°02'0 0.0
2017-Nov-26 09:29N 42°21' W 071°02'0 0.0
2017-Nov-26 08:59N 42°21' W 071°02'0 0.0
2017-Nov-26 08:29N 42°21' W 071°02'0 0.0
2017-Nov-26 07:59N 42°21' W 071°02'0 0.0
2017-Nov-26 07:29N 42°21' W 071°02'0 0.0
2017-Nov-26 06:59N 42°21' W 071°02'0 0.0
2017-Nov-26 06:29N 42°21' W 071°02'0 0.0
2017-Nov-26 05:59N 42°21' W 071°02'0 0.0
2017-Nov-26 05:29N 42°21' W 071°02'0 0.0
2017-Nov-26 04:59N 42°21' W 071°02'0 0.0
2017-Nov-26 04:29N 42°21' W 071°02'0 0.0
2017-Nov-26 03:59N 42°21' W 071°02'0 0.0
2017-Nov-26 03:29N 42°21' W 071°02'0 0.0
2017-Nov-26 02:59N 42°21' W 071°02'0 0.0
2017-Nov-26 02:29N 42°21' W 071°02'0 0.0
2017-Nov-26 01:59N 42°21' W 071°02'0 0.0
2017-Nov-26 01:29N 42°21' W 071°02'0 0.0
2017-Nov-26 00:59N 42°21' W 071°02'0 0.0
2017-Nov-26 00:29N 42°21' W 071°02'0 0.0
2017-Nov-25 23:59N 42°21' W 071°02'0 0.0
2017-Nov-25 23:29N 42°21' W 071°02'0 0.0
2017-Nov-25 22:59N 42°21' W 071°02'0 0.0
2017-Nov-25 22:29N 42°21' W 071°02'0 0.0
2017-Nov-25 21:59N 42°21' W 071°02'0 0.0
2017-Nov-25 21:29N 42°21' W 071°02'0 0.0
2017-Nov-25 20:59N 42°21' W 071°02'0 0.0
2017-Nov-25 20:29N 42°21' W 071°02'0 0.0
2017-Nov-25 19:53N 42°21' W 071°02'0 0.0
2017-Nov-25 19:29N 42°21' W 071°02'0 0.0
2017-Nov-25 18:59N 42°21' W 071°02'0 0.0
2017-Nov-25 18:29N 42°21' W 071°02'0 0.0
2017-Nov-25 17:59N 42°21' W 071°02'0 0.0
2017-Nov-25 17:29N 42°21' W 071°02'0 0.0
2017-Nov-25 16:59N 42°21' W 071°02'0 0.0
2017-Nov-25 16:29N 42°21' W 071°02'0 0.0
2017-Nov-25 15:59N 42°21' W 071°02'0 0.0
2017-Nov-25 15:29N 42°21' W 071°02'0 0.0
2017-Nov-25 14:59N 42°21' W 071°02'0 0.0
2017-Nov-25 14:29N 42°21' W 071°02'0 0.0
2017-Nov-25 13:59N 42°21' W 071°02'0 0.0
2017-Nov-25 13:29N 42°21' W 071°02'0 0.0
2017-Nov-25 12:59N 42°21' W 071°02'0 0.0
2017-Nov-25 12:29N 42°21' W 071°02'0 0.0
2017-Nov-25 11:59N 42°21' W 071°02'0 0.0
2017-Nov-25 11:29N 42°21' W 071°02'0 0.0
2017-Nov-25 10:59N 42°21' W 071°02'0 0.0
2017-Nov-25 10:29N 42°21' W 071°02'0 0.0
2017-Nov-25 09:59N 42°21' W 071°02'0 0.0
2017-Nov-25 09:29N 42°21' W 071°02'0 0.0
2017-Nov-25 08:59N 42°21' W 071°02'0 0.0
2017-Nov-25 08:29N 42°21' W 071°02'0 0.0
2017-Nov-25 07:59N 42°21' W 071°02'0 0.0
2017-Nov-25 07:29N 42°21' W 071°02'0 0.0
2017-Nov-25 06:59N 42°21' W 071°02'0 0.0
2017-Nov-25 06:29N 42°21' W 071°02'0 0.0
2017-Nov-25 05:59N 42°21' W 071°02'0 0.0
2017-Nov-25 05:29N 42°21' W 071°02'0 0.0
2017-Nov-25 04:59N 42°21' W 071°02'0 0.0
2017-Nov-25 04:29N 42°21' W 071°02'0 0.0
2017-Nov-25 03:59N 42°21' W 071°02'0 0.0
2017-Nov-25 03:29N 42°21' W 071°02'0 0.0
2017-Nov-25 02:59N 42°21' W 071°02'0 0.0
2017-Nov-25 02:29N 42°21' W 071°02'0 0.0
2017-Nov-25 01:59N 42°21' W 071°02'0 0.0
2017-Nov-25 01:29N 42°21' W 071°02'0 0.0
2017-Nov-25 00:59N 42°21' W 071°02'0 0.0
2017-Nov-25 00:29N 42°21' W 071°02'0 0.0
2017-Nov-24 23:59N 42°21' W 071°02'0 0.0
2017-Nov-24 23:29N 42°21' W 071°02'0 0.0
2017-Nov-24 22:59N 42°21' W 071°02'0 0.0
2017-Nov-24 22:29N 42°21' W 071°02'0 0.0
2017-Nov-24 21:59N 42°21' W 071°02'0 0.0
2017-Nov-24 21:29N 42°21' W 071°02'0 0.0
2017-Nov-24 20:59N 42°21' W 071°02'0 0.0
2017-Nov-24 20:29N 42°21' W 071°02'0 0.0
2017-Nov-24 19:59N 42°21' W 071°02'0 0.0
2017-Nov-24 19:29N 42°21' W 071°02'0 0.0
2017-Nov-24 18:59N 42°21' W 071°02'0 0.0
2017-Nov-24 18:29N 42°21' W 071°02'0 0.0
2017-Nov-24 17:59N 42°21' W 071°02'0 0.0
2017-Nov-24 17:29N 42°21' W 071°02'0 0.0
2017-Nov-24 16:59N 42°21' W 071°02'0 0.0
2017-Nov-24 16:29N 42°21' W 071°02'0 0.0
2017-Nov-24 15:59N 42°21' W 071°02'0 0.0
2017-Nov-24 15:26N 42°21' W 071°02'0 0.0
2017-Nov-24 14:59N 42°21' W 071°02'0 0.0
2017-Nov-24 14:29N 42°21' W 071°02'0 0.0
2017-Nov-24 13:59N 42°21' W 071°02'0 0.0
2017-Nov-24 13:29N 42°21' W 071°02'0 0.0
2017-Nov-24 12:59N 42°21' W 071°02'0 0.0
2017-Nov-24 12:29N 42°21' W 071°02'0 0.0
2017-Nov-24 11:59N 42°21' W 071°02'0 0.0
2017-Nov-24 11:29N 42°21' W 071°02'0 0.0
2017-Nov-24 10:59N 42°21' W 071°02'0 0.0
2017-Nov-24 10:29N 42°21' W 071°02'0 0.0
2017-Nov-24 09:59N 42°21' W 071°02'0 0.0
2017-Nov-24 09:29N 42°21' W 071°02'0 0.0
2017-Nov-24 08:59N 42°21' W 071°02'0 0.0
2017-Nov-24 08:29N 42°21' W 071°02'0 0.0
2017-Nov-24 07:59N 42°21' W 071°02'0 0.0
2017-Nov-24 07:29N 42°21' W 071°02'0 0.0
2017-Nov-24 06:59N 42°21' W 071°02'0 0.0
2017-Nov-24 06:29N 42°21' W 071°02'0 0.0
2017-Nov-24 05:59N 42°21' W 071°02'0 0.0
2017-Nov-24 05:29N 42°21' W 071°02'0 0.0
2017-Nov-24 04:59N 42°21' W 071°02'0 0.0
2017-Nov-24 04:29N 42°21' W 071°02'0 0.0
2017-Nov-24 03:59N 42°21' W 071°02'0 0.0
2017-Nov-24 03:29N 42°21' W 071°02'0 0.0
2017-Nov-24 02:59N 42°21' W 071°02'0 0.0
2017-Nov-24 02:29N 42°21' W 071°02'0 0.0
2017-Nov-24 01:59N 42°21' W 071°02'0 0.0
2017-Nov-24 01:26N 42°21' W 071°02'0 0.0
2017-Nov-24 00:59N 42°21' W 071°02'0 0.0
2017-Nov-24 00:29N 42°21' W 071°02'0 0.0
2017-Nov-23 23:59N 42°21' W 071°02'0 0.0
2017-Nov-23 23:29N 42°21' W 071°02'0 0.0
2017-Nov-23 22:59N 42°21' W 071°02'0 0.0
2017-Nov-23 22:29N 42°21' W 071°02'0 0.0
2017-Nov-23 21:59N 42°21' W 071°02'0 0.0
2017-Nov-23 21:23N 42°21' W 071°02'0 0.0
2017-Nov-23 20:56N 42°21' W 071°02'0 0.0
2017-Nov-23 20:29N 42°21' W 071°02'0 0.0
2017-Nov-23 19:59N 42°21' W 071°02'0 0.0
2017-Nov-23 19:29N 42°21' W 071°02'0 0.0
2017-Nov-23 18:59N 42°21' W 071°02'0 0.0
2017-Nov-23 18:29N 42°21' W 071°02'  

Dump ship's entire track history